createdAt,value
2019-06-27T00:03:17.587Z,6.25
2019-06-27T00:08:03.275Z,6.15
2019-06-27T00:12:49.303Z,6.42
2019-06-27T00:17:35.105Z,7.00
2019-06-27T00:22:20.897Z,7.30
2019-06-27T00:27:06.699Z,7.00
2019-06-27T00:31:52.458Z,7.10
2019-06-27T00:36:38.396Z,6.87
2019-06-27T00:41:24.317Z,6.55
2019-06-27T00:46:10.107Z,7.17
2019-06-27T00:50:55.923Z,6.57
2019-06-27T00:55:41.692Z,6.10
2019-06-27T01:00:27.553Z,4.65
2019-06-27T01:05:32.227Z,5.90
2019-06-27T01:10:18.633Z,4.78
2019-06-27T01:15:04.980Z,6.33
2019-06-27T01:19:50.732Z,6.40
2019-06-27T01:24:36.470Z,6.33
2019-06-27T01:29:22.273Z,7.27
2019-06-27T01:34:08.033Z,7.58
2019-06-27T01:38:53.774Z,6.83
2019-06-27T01:43:39.504Z,6.73
2019-06-27T01:48:25.339Z,6.70
2019-06-27T01:53:11.116Z,6.33
2019-06-27T01:57:56.901Z,6.20
2019-06-27T02:02:42.696Z,7.00
2019-06-27T02:07:28.450Z,6.30
2019-06-27T02:12:14.281Z,6.47
2019-06-27T02:17:00.114Z,6.57
2019-06-27T02:21:45.938Z,7.00
2019-06-27T02:26:31.739Z,6.37
2019-06-27T02:31:17.438Z,6.47
2019-06-27T02:36:03.183Z,6.80
2019-06-27T02:40:48.934Z,6.77
2019-06-27T02:45:34.752Z,7.60
2019-06-27T02:50:20.700Z,6.80
2019-06-27T02:55:06.615Z,6.60
2019-06-27T02:59:52.361Z,6.00
2019-06-27T03:04:57.064Z,5.93
2019-06-27T03:09:42.813Z,6.40
2019-06-27T03:14:28.564Z,6.70
2019-06-27T03:19:14.345Z,6.87
2019-06-27T03:24:00.391Z,6.50
2019-06-27T03:28:52.874Z,6.00
2019-06-27T03:33:33.480Z,6.77
2019-06-27T03:38:19.313Z,6.93
2019-06-27T03:43:05.246Z,6.90
2019-06-27T03:47:50.953Z,7.53
2019-06-27T03:52:58.391Z,6.57
2019-06-27T03:57:45.295Z,6.87
2019-06-27T04:02:31.545Z,7.10
2019-06-27T04:07:17.308Z,7.23
2019-06-27T04:12:03.324Z,6.30
2019-06-27T04:16:49.819Z,9.93
2019-06-27T04:21:35.960Z,7.60
2019-06-27T04:26:21.676Z,8.40
2019-06-27T04:31:07.502Z,8.17
2019-06-27T04:35:53.530Z,7.37
2019-06-27T04:40:58.431Z,7.03
2019-06-27T04:45:44.286Z,6.13
2019-06-27T04:50:30.021Z,6.53
2019-06-27T04:55:16.008Z,7.12
2019-06-27T05:00:06.267Z,8.13
2019-06-27T05:04:52.085Z,6.78
2019-06-27T05:09:37.859Z,7.23
2019-06-27T05:14:23.818Z,6.22
2019-06-27T05:19:09.647Z,6.73
2019-06-27T05:23:55.571Z,6.15
2019-06-27T05:28:41.333Z,6.60
2019-06-27T05:33:27.137Z,8.20
2019-06-27T05:38:13.146Z,6.85
2019-06-27T05:42:59.091Z,6.47
2019-06-27T05:47:44.916Z,7.25
2019-06-27T05:52:30.774Z,5.62
2019-06-27T05:57:16.501Z,6.53
2019-06-27T06:02:02.323Z,7.37
2019-06-27T06:06:48.178Z,9.95
2019-06-27T06:11:33.962Z,6.00
2019-06-27T06:16:19.749Z,5.97
2019-06-27T06:21:05.567Z,4.83
2019-06-27T06:25:51.325Z,5.80
2019-06-27T06:30:44.454Z,5.25
2019-06-27T06:35:24.618Z,5.37
2019-06-27T06:40:10.969Z,4.83
2019-06-27T06:44:56.740Z,5.70
2019-06-27T06:49:42.502Z,5.35
2019-06-27T06:54:28.360Z,6.40
2019-06-27T06:59:14.141Z,5.00
2019-06-27T07:04:00.372Z,4.85
2019-06-27T07:08:46.294Z,5.30
2019-06-27T07:13:32.085Z,5.62
2019-06-27T07:18:17.908Z,5.20
2019-06-27T07:23:03.653Z,5.62
2019-06-27T07:27:49.440Z,5.17
2019-06-27T07:32:35.219Z,5.22
2019-06-27T07:37:21.074Z,6.08
2019-06-27T07:42:06.908Z,5.45
2019-06-27T07:46:52.679Z,5.62
2019-06-27T07:51:38.491Z,6.05
2019-06-27T07:56:24.273Z,4.90
2019-06-27T08:01:09.999Z,6.37
2019-06-27T08:05:56.037Z,5.67
2019-06-27T08:10:41.870Z,5.50
2019-06-27T08:15:27.633Z,6.12
2019-06-27T08:20:14.765Z,5.97
2019-06-27T08:25:00.557Z,5.60
2019-06-27T08:29:46.328Z,5.60
2019-06-27T08:34:32.119Z,5.95
2019-06-27T08:39:18.014Z,5.83
2019-06-27T08:44:03.719Z,6.20
2019-06-27T08:48:49.570Z,6.05
2019-06-27T08:53:35.463Z,5.85
2019-06-27T08:58:21.152Z,6.72
2019-06-27T09:03:25.874Z,6.53
2019-06-27T09:08:11.721Z,7.65
2019-06-27T09:13:16.463Z,7.10
2019-06-27T09:18:02.160Z,7.00
2019-06-27T09:22:47.995Z,7.05
2019-06-27T09:27:33.870Z,6.70
2019-06-27T09:32:25.496Z,6.28
2019-06-27T09:37:07.163Z,6.17
2019-06-27T09:41:53.058Z,6.30
2019-06-27T09:46:38.868Z,6.45
2019-06-27T09:51:24.666Z,6.85
2019-06-27T09:56:10.697Z,6.35
2019-06-27T10:00:56.621Z,7.35
2019-06-27T10:05:42.406Z,6.70
2019-06-27T10:10:47.182Z,6.72
2019-06-27T10:15:33.203Z,7.67
2019-06-27T10:20:19.334Z,7.25
2019-06-27T10:25:05.479Z,7.28
2019-06-27T10:29:51.270Z,8.48
2019-06-27T10:34:37.114Z,12.95
2019-06-27T10:39:23.077Z,7.08
2019-06-27T10:44:09.032Z,7.37
2019-06-27T10:48:55.024Z,8.08
2019-06-27T10:53:41.054Z,7.58
2019-06-27T10:58:27.300Z,6.92
2019-06-27T11:03:15.969Z,6.47
2019-06-27T11:08:01.363Z,7.50
2019-06-27T11:12:47.699Z,7.55
2019-06-27T11:17:33.586Z,6.47
2019-06-27T11:22:19.648Z,7.10
2019-06-27T11:27:05.871Z,6.47
2019-06-27T11:31:51.716Z,6.58
2019-06-27T11:36:39.289Z,6.75
2019-06-27T11:41:27.008Z,6.90
2019-06-27T11:46:12.899Z,7.00
2019-06-27T11:50:58.792Z,7.05
2019-06-27T11:55:44.570Z,7.15
2019-06-27T12:00:30.694Z,6.25
2019-06-27T12:05:16.630Z,7.55
2019-06-27T12:10:02.502Z,7.58
2019-06-27T12:14:48.718Z,7.12
2019-06-27T12:19:34.581Z,6.53
2019-06-27T12:24:20.417Z,6.03
2019-06-27T12:29:06.171Z,5.95
2019-06-27T12:34:05.737Z,6.15
2019-06-27T12:38:39.919Z,6.45
2019-06-27T12:43:25.816Z,6.35
2019-06-27T12:48:12.009Z,7.08
2019-06-27T12:52:57.801Z,6.35
2019-06-27T12:57:43.593Z,6.15
2019-06-27T13:02:29.576Z,6.35
2019-06-27T13:07:15.331Z,7.05
2019-06-27T13:12:01.482Z,6.78
2019-06-27T13:16:47.566Z,6.20
2019-06-27T13:21:33.404Z,6.53
2019-06-27T13:26:19.148Z,6.75
2019-06-27T13:31:04.997Z,6.95
2019-06-27T13:35:50.734Z,6.80
2019-06-27T13:40:36.878Z,6.37
2019-06-27T13:45:26.379Z,6.28
2019-06-27T13:50:10.533Z,6.53
2019-06-27T13:54:56.450Z,6.83
2019-06-27T13:59:42.417Z,6.05
2019-06-27T14:04:28.219Z,5.90
2019-06-27T14:09:23.045Z,6.08
2019-06-27T14:14:01.938Z,5.97
2019-06-27T14:18:47.987Z,5.92
2019-06-27T14:23:33.763Z,6.85
2019-06-27T14:28:19.530Z,6.08
2019-06-27T14:33:05.594Z,6.95
2019-06-27T14:37:51.438Z,6.42
2019-06-27T14:42:37.297Z,6.42
2019-06-27T14:47:23.027Z,8.10
2019-06-27T14:52:09.438Z,5.65
2019-06-27T14:56:55.270Z,5.47
2019-06-27T15:01:41.104Z,6.05
2019-06-27T15:06:27.342Z,6.20
2019-06-27T15:11:13.459Z,6.05
2019-06-27T15:16:11.323Z,5.37
2019-06-27T15:20:47.381Z,5.65
2019-06-27T15:25:33.433Z,6.70
2019-06-27T15:30:19.565Z,6.80
2019-06-27T15:35:05.957Z,5.53
2019-06-27T15:39:51.920Z,5.97
2019-06-27T15:44:56.629Z,6.58
2019-06-27T15:49:42.327Z,5.78
2019-06-27T15:54:28.414Z,5.37
2019-06-27T15:59:14.790Z,5.87
2019-06-27T16:04:01.019Z,6.83
2019-06-27T16:08:47.020Z,6.10
2019-06-27T16:13:33.682Z,6.40
2019-06-27T16:18:19.584Z,7.35
2019-06-27T16:23:06.933Z,7.70
2019-06-27T16:27:52.866Z,7.20
2019-06-27T16:32:39.237Z,7.33
2019-06-27T16:37:25.011Z,7.60
2019-06-27T16:42:11.055Z,8.45
2019-06-27T16:46:57.458Z,8.15
2019-06-27T16:51:43.751Z,8.13
2019-06-27T16:56:30.116Z,8.20
2019-06-27T17:01:16.512Z,8.88
2019-06-27T17:06:02.574Z,9.35
2019-06-27T17:10:48.476Z,9.10
2019-06-27T17:15:34.668Z,8.75
2019-06-27T17:20:21.372Z,8.15
2019-06-27T17:25:07.695Z,8.40
2019-06-27T17:29:54.008Z,8.43
2019-06-27T17:34:40.202Z,8.35
2019-06-27T17:39:26.086Z,8.30
2019-06-27T17:44:12.437Z,8.70
2019-06-27T17:48:59.166Z,8.88
2019-06-27T17:53:45.281Z,9.65
2019-06-27T17:58:32.159Z,10.45
2019-06-27T18:03:18.846Z,10.00
2019-06-27T18:08:05.201Z,11.30
2019-06-27T18:12:51.753Z,10.10
2019-06-27T18:17:37.922Z,10.95
2019-06-27T18:22:42.724Z,10.80
2019-06-27T18:27:28.734Z,10.65
2019-06-27T18:32:14.796Z,12.80
2019-06-27T18:37:00.910Z,11.20
2019-06-27T18:41:47.018Z,11.80
2019-06-27T18:46:32.972Z,10.95
2019-06-27T18:51:19.292Z,11.63
2019-06-27T18:56:05.307Z,11.65
2019-06-27T19:00:51.176Z,10.80
2019-06-27T19:05:37.415Z,11.73
2019-06-27T19:10:23.729Z,11.75
2019-06-27T19:15:11.081Z,11.88
2019-06-27T19:19:59.980Z,11.78
2019-06-27T19:24:51.626Z,12.18
2019-06-27T19:29:37.482Z,13.10
2019-06-27T19:34:23.688Z,12.30
2019-06-27T19:39:09.835Z,13.20
2019-06-27T19:43:57.610Z,12.88
2019-06-27T19:48:45.758Z,14.23
2019-06-27T19:53:31.356Z,13.18
2019-06-27T19:58:17.719Z,12.95
2019-06-27T20:03:03.617Z,14.05
2019-06-27T20:07:49.438Z,12.88
2019-06-27T20:12:35.488Z,13.75
2019-06-27T20:17:21.738Z,14.20
2019-06-27T20:22:07.798Z,14.60
2019-06-27T20:26:53.683Z,15.08
2019-06-27T20:31:39.538Z,13.80
2019-06-27T20:36:25.701Z,14.45
2019-06-27T20:41:13.099Z,14.80
2019-06-27T20:45:59.533Z,14.47
2019-06-27T20:50:45.574Z,14.98
2019-06-27T20:55:31.532Z,14.80
2019-06-27T21:00:17.786Z,14.28
2019-06-27T21:05:03.751Z,15.15
2019-06-27T21:09:49.705Z,17.27
2019-06-27T21:14:35.588Z,14.90
2019-06-27T21:19:40.347Z,15.30
2019-06-27T21:24:26.283Z,14.30
2019-06-27T21:29:12.592Z,13.90
2019-06-27T21:33:58.414Z,13.90
2019-06-27T21:38:44.185Z,13.93
2019-06-27T21:43:30.101Z,12.47
2019-06-27T21:48:17.065Z,10.45
2019-06-27T21:53:02.812Z,10.53
2019-06-27T21:57:48.832Z,9.25
2019-06-27T22:02:35.124Z,9.70
2019-06-27T22:07:21.348Z,8.70
2019-06-27T22:12:07.200Z,8.60
2019-06-27T22:16:53.257Z,9.80
2019-06-27T22:21:39.157Z,9.15
2019-06-27T22:26:25.357Z,9.03
2019-06-27T22:31:11.189Z,9.18
2019-06-27T22:35:57.076Z,9.38
2019-06-27T22:41:01.254Z,9.28
2019-06-27T22:46:04.341Z,9.60
2019-06-27T22:51:22.034Z,9.73
2019-06-27T22:56:07.930Z,9.23
2019-06-27T23:00:53.885Z,9.68
2019-06-27T23:05:39.913Z,9.55
2019-06-27T23:10:25.842Z,9.68
2019-06-27T23:15:11.765Z,9.90
2019-06-27T23:19:57.507Z,9.43
2019-06-27T23:24:43.289Z,9.75
2019-06-27T23:29:29.063Z,9.03
2019-06-27T23:34:14.872Z,8.78
2019-06-27T23:39:00.741Z,8.45
2019-06-27T23:43:46.485Z,8.60
2019-06-27T23:48:32.219Z,8.83
2019-06-27T23:53:17.993Z,8.35
2019-06-27T23:58:03.752Z,8.65
